createdAt,value
2019-05-26T00:02:11.499Z,33.73
2019-05-26T00:04:46.199Z,32.87
2019-05-26T00:07:30.274Z,31.50
2019-05-26T00:09:54.014Z,29.83
2019-05-26T00:12:26.416Z,29.17
2019-05-26T00:14:58.480Z,27.57
2019-05-26T00:17:30.560Z,25.60
2019-05-26T00:20:05.066Z,24.20
2019-05-26T00:22:39.389Z,24.80
2019-05-26T00:25:12.804Z,21.13
2019-05-26T00:27:44.234Z,22.37
2019-05-26T00:30:17.255Z,20.80
2019-05-26T00:32:48.878Z,18.97
2019-05-26T00:35:20.943Z,20.00
2019-05-26T00:37:53.215Z,19.67
2019-05-26T00:40:25.687Z,21.03
2019-05-26T00:42:57.549Z,20.40
2019-05-26T00:45:32.070Z,21.43
2019-05-26T00:48:04.938Z,23.47
2019-05-26T00:50:37.745Z,23.77
2019-05-26T00:53:11.846Z,22.47
2019-05-26T00:55:45.032Z,23.03
2019-05-26T00:58:17.718Z,24.70
2019-05-26T01:00:49.782Z,22.30
2019-05-26T01:03:21.759Z,22.03
2019-05-26T01:05:54.525Z,22.23
2019-05-26T01:08:26.287Z,23.60
2019-05-26T01:11:01.302Z,23.13
2019-05-26T01:13:31.846Z,24.40
2019-05-26T01:16:03.614Z,22.93
2019-05-26T01:18:35.359Z,24.43
2019-05-26T01:21:07.119Z,23.30
2019-05-26T01:23:41.446Z,22.40
2019-05-26T01:26:13.399Z,24.13
2019-05-26T01:28:45.474Z,23.07
2019-05-26T01:31:18.449Z,21.23
2019-05-26T01:33:51.025Z,19.33
2019-05-26T01:36:24.017Z,20.63
2019-05-26T01:38:55.977Z,20.57
2019-05-26T01:41:28.363Z,22.27
2019-05-26T01:43:59.756Z,21.73
2019-05-26T01:46:31.976Z,25.57
2019-05-26T01:49:06.288Z,27.57
2019-05-26T01:51:37.947Z,30.97
2019-05-26T01:54:10.522Z,33.37
2019-05-26T01:56:43.508Z,36.30
2019-05-26T01:59:15.371Z,39.83
2019-05-26T02:01:49.180Z,43.77
2019-05-26T02:04:21.693Z,44.93
2019-05-26T02:06:55.246Z,46.73
2019-05-26T02:09:27.210Z,47.00
2019-05-26T02:12:01.518Z,51.40
2019-05-26T02:14:33.591Z,51.63
2019-05-26T02:17:05.659Z,51.87
2019-05-26T02:19:37.622Z,50.83
2019-05-26T02:22:09.681Z,51.97
2019-05-26T02:24:41.949Z,56.17
2019-05-26T02:27:14.821Z,56.43
2019-05-26T02:29:47.823Z,58.47
2019-05-26T02:32:20.099Z,58.70
2019-05-26T02:34:53.899Z,60.60
2019-05-26T02:37:25.870Z,68.53
2019-05-26T02:39:57.850Z,68.63
2019-05-26T02:42:29.587Z,64.10
2019-05-26T02:45:01.709Z,61.10
2019-05-26T02:47:34.021Z,64.40
2019-05-26T02:50:08.901Z,58.97
2019-05-26T02:52:41.020Z,60.00
2019-05-26T02:55:15.742Z,57.67
2019-05-26T02:57:48.626Z,52.10
2019-05-26T03:00:38.716Z,52.40
2019-05-26T03:03:13.263Z,47.77
2019-05-26T03:05:46.085Z,44.00
2019-05-26T03:08:18.605Z,41.97
2019-05-26T03:10:52.451Z,39.93
2019-05-26T03:13:24.284Z,39.87
2019-05-26T03:15:58.683Z,36.67
2019-05-26T03:18:33.219Z,35.13
2019-05-26T03:21:05.998Z,35.17
2019-05-26T03:23:41.328Z,31.83
2019-05-26T03:26:16.262Z,32.10
2019-05-26T03:28:49.771Z,34.07
2019-05-26T03:31:22.867Z,31.37
2019-05-26T03:33:56.353Z,28.50
2019-05-26T03:36:30.874Z,29.73
2019-05-26T03:39:02.631Z,28.93
2019-05-26T03:41:36.542Z,29.93
2019-05-26T03:44:09.126Z,30.80
2019-05-26T03:46:42.723Z,30.67
2019-05-26T03:49:14.364Z,30.47
2019-05-26T03:51:48.410Z,30.07
2019-05-26T03:54:20.647Z,31.40
2019-05-26T03:56:53.428Z,30.83
2019-05-26T03:59:25.291Z,33.10
2019-05-26T04:01:58.224Z,34.73
2019-05-26T04:04:30.039Z,34.37
2019-05-26T04:07:01.744Z,34.90
2019-05-26T04:09:35.397Z,41.10
2019-05-26T04:12:07.876Z,49.57
2019-05-26T04:14:41.481Z,49.20
2019-05-26T04:17:18.243Z,54.03
2019-05-26T04:19:50.623Z,51.50
2019-05-26T04:22:22.836Z,55.23
2019-05-26T04:24:55.262Z,56.13
2019-05-26T04:27:27.832Z,53.07
2019-05-26T04:30:00.650Z,49.40
2019-05-26T04:32:33.715Z,47.73
2019-05-26T04:35:07.917Z,43.83
2019-05-26T04:37:39.499Z,40.57
2019-05-26T04:40:25.624Z,38.67
2019-05-26T04:42:45.342Z,33.10
2019-05-26T04:45:21.919Z,29.90
2019-05-26T04:47:54.077Z,26.90
2019-05-26T04:50:27.070Z,24.77
2019-05-26T04:53:06.545Z,23.13
2019-05-26T04:55:34.471Z,24.33
2019-05-26T04:58:07.476Z,21.03
2019-05-26T05:00:40.957Z,21.23
2019-05-26T05:03:14.217Z,21.73
2019-05-26T05:05:46.111Z,20.20
2019-05-26T05:08:17.974Z,20.57
2019-05-26T05:10:49.729Z,20.40
2019-05-26T05:13:24.891Z,21.93
2019-05-26T05:15:55.498Z,21.40
2019-05-26T05:18:30.846Z,21.67
2019-05-26T05:21:02.497Z,21.47
2019-05-26T05:23:34.463Z,18.83
2019-05-26T05:26:07.049Z,17.53
2019-05-26T05:28:39.205Z,13.00
2019-05-26T05:31:11.676Z,10.80
2019-05-26T05:33:46.609Z,11.30
2019-05-26T05:36:18.068Z,10.70
2019-05-26T05:38:51.663Z,9.73
2019-05-26T05:41:25.270Z,10.00
2019-05-26T05:43:57.767Z,7.70
2019-05-26T05:46:31.339Z,7.60
2019-05-26T05:49:03.159Z,8.50
2019-05-26T05:51:37.455Z,8.53
2019-05-26T05:54:08.921Z,7.23
2019-05-26T05:56:40.827Z,7.97
2019-05-26T05:59:12.423Z,7.67
2019-05-26T06:01:45.470Z,7.60
2019-05-26T06:04:17.198Z,7.87
2019-05-26T06:06:49.176Z,9.43
2019-05-26T06:09:24.645Z,7.03
2019-05-26T06:11:57.220Z,6.63
2019-05-26T06:14:29.139Z,7.23
2019-05-26T06:17:03.196Z,6.80
2019-05-26T06:19:34.522Z,6.90
2019-05-26T06:22:06.484Z,6.90
2019-05-26T06:24:37.953Z,6.73
2019-05-26T06:27:10.606Z,10.90
2019-05-26T06:29:57.973Z,6.77
2019-05-26T06:32:16.335Z,6.80
2019-05-26T06:34:48.437Z,7.70
2019-05-26T06:37:19.990Z,7.83
2019-05-26T06:39:51.755Z,8.20
2019-05-26T06:42:24.478Z,8.07
2019-05-26T06:44:55.891Z,14.33
2019-05-26T06:47:27.315Z,8.50
2019-05-26T06:49:59.376Z,9.07
2019-05-26T06:52:32.434Z,8.33
2019-05-26T06:55:04.477Z,8.53
2019-05-26T06:57:38.134Z,8.90
2019-05-26T07:00:10.556Z,8.73
2019-05-26T07:02:42.266Z,16.67
2019-05-26T07:05:18.060Z,8.10
2019-05-26T07:07:47.911Z,9.30
2019-05-26T07:10:19.364Z,9.53
2019-05-26T07:12:52.305Z,8.67
2019-05-26T07:15:23.821Z,7.93
2019-05-26T07:17:55.566Z,7.70
2019-05-26T07:20:28.095Z,7.00
2019-05-26T07:22:59.887Z,6.97
2019-05-26T07:25:31.886Z,8.23
2019-05-26T07:28:03.253Z,6.97
2019-05-26T07:30:35.102Z,7.63
2019-05-26T07:33:06.420Z,7.57
2019-05-26T07:35:38.775Z,8.20
2019-05-26T07:38:10.158Z,7.57
2019-05-26T07:40:41.711Z,6.27
2019-05-26T07:43:13.180Z,5.87
2019-05-26T07:45:44.634Z,6.40
2019-05-26T07:48:16.086Z,6.00
2019-05-26T07:50:47.423Z,5.33
2019-05-26T07:53:18.897Z,5.63
2019-05-26T07:55:50.256Z,5.67
2019-05-26T07:58:21.986Z,6.40
2019-05-26T08:00:53.331Z,5.47
2019-05-26T08:03:25.179Z,5.37
2019-05-26T08:05:57.614Z,4.70
2019-05-26T08:08:29.196Z,5.27
2019-05-26T08:11:02.735Z,5.13
2019-05-26T08:13:34.243Z,5.10
2019-05-26T08:16:05.711Z,6.57
2019-05-26T08:18:37.185Z,5.63
2019-05-26T08:21:09.548Z,4.67
2019-05-26T08:23:41.675Z,5.43
2019-05-26T08:26:13.059Z,4.77
2019-05-26T08:28:44.677Z,5.70
2019-05-26T08:31:17.675Z,5.87
2019-05-26T08:33:49.990Z,5.07
2019-05-26T08:36:23.275Z,4.53
2019-05-26T08:38:54.835Z,4.80
2019-05-26T08:41:27.093Z,4.13
2019-05-26T08:43:59.021Z,4.73
2019-05-26T08:46:31.109Z,4.20
2019-05-26T08:49:02.511Z,4.60
2019-05-26T08:51:33.918Z,4.10
2019-05-26T08:54:06.706Z,4.47
2019-05-26T08:56:38.355Z,5.73
2019-05-26T08:59:11.650Z,5.47
2019-05-26T09:01:45.667Z,5.70
2019-05-26T09:04:18.281Z,5.50
2019-05-26T09:06:49.716Z,5.30
2019-05-26T09:09:22.642Z,5.50
2019-05-26T09:11:56.455Z,5.83
2019-05-26T09:14:30.286Z,6.83
2019-05-26T09:17:02.357Z,8.00
2019-05-26T09:19:35.753Z,9.57
2019-05-26T09:22:09.653Z,6.23
2019-05-26T09:24:42.256Z,5.70
2019-05-26T09:27:16.193Z,7.60
2019-05-26T09:29:48.307Z,9.13
2019-05-26T09:32:21.599Z,10.30
2019-05-26T09:34:54.496Z,13.00
2019-05-26T09:37:26.350Z,10.87
2019-05-26T09:39:57.800Z,9.43
2019-05-26T09:42:29.554Z,10.40
2019-05-26T09:45:01.313Z,10.70
2019-05-26T09:47:32.720Z,10.27
2019-05-26T09:50:05.994Z,8.10
2019-05-26T09:52:37.938Z,7.10
2019-05-26T09:55:10.720Z,7.53
2019-05-26T09:57:46.349Z,7.90
2019-05-26T10:00:19.172Z,7.07
2019-05-26T10:02:52.320Z,7.83
2019-05-26T10:05:24.279Z,6.93
2019-05-26T10:07:56.651Z,9.03
2019-05-26T10:10:29.131Z,6.80
2019-05-26T10:13:01.094Z,6.90
2019-05-26T10:15:33.675Z,7.10
2019-05-26T10:18:06.568Z,7.50
2019-05-26T10:20:38.822Z,8.77
2019-05-26T10:23:10.581Z,7.37
2019-05-26T10:25:42.779Z,7.10
2019-05-26T10:28:15.709Z,6.10
2019-05-26T10:30:49.338Z,8.57
2019-05-26T10:33:20.834Z,6.27
2019-05-26T10:35:52.860Z,7.00
2019-05-26T10:38:25.336Z,7.03
2019-05-26T10:40:58.521Z,7.07
2019-05-26T10:43:45.951Z,7.27
2019-05-26T10:46:06.640Z,7.50
2019-05-26T10:48:38.398Z,8.90
2019-05-26T10:51:10.261Z,7.40
2019-05-26T10:53:42.427Z,7.40
2019-05-26T10:56:17.060Z,8.63
2019-05-26T10:58:49.421Z,8.57
2019-05-26T11:01:23.912Z,11.73
2019-05-26T11:03:56.934Z,7.97
2019-05-26T11:06:28.493Z,7.20
2019-05-26T11:09:00.243Z,7.40
2019-05-26T11:11:32.539Z,7.10
2019-05-26T11:14:05.193Z,6.13
2019-05-26T11:16:36.762Z,6.50
2019-05-26T11:19:09.422Z,6.20
2019-05-26T11:21:42.513Z,5.60
2019-05-26T11:24:18.883Z,6.10
2019-05-26T11:26:51.110Z,5.40
2019-05-26T11:29:22.907Z,5.20
2019-05-26T11:31:56.100Z,4.93
2019-05-26T11:34:27.973Z,4.87
2019-05-26T11:36:59.925Z,5.00
2019-05-26T11:39:32.302Z,5.63
2019-05-26T11:42:13.226Z,6.37
2019-05-26T11:44:39.855Z,6.57
2019-05-26T11:47:11.352Z,6.77
2019-05-26T11:49:43.323Z,6.47
2019-05-26T11:52:20.352Z,6.30
2019-05-26T11:54:54.259Z,6.93
2019-05-26T11:57:28.937Z,6.97
2019-05-26T12:00:00.987Z,7.50
2019-05-26T12:02:32.928Z,7.90
2019-05-26T12:05:08.169Z,8.33
2019-05-26T12:07:39.723Z,6.30
2019-05-26T12:10:14.689Z,5.30
2019-05-26T12:12:50.386Z,4.80
2019-05-26T12:15:22.220Z,4.43
2019-05-26T12:17:53.647Z,4.60
2019-05-26T12:20:28.111Z,4.70
2019-05-26T12:23:03.144Z,4.63
2019-05-26T12:25:34.590Z,5.50
2019-05-26T12:28:06.350Z,5.83
2019-05-26T12:30:37.715Z,5.30
2019-05-26T12:33:11.079Z,5.27
2019-05-26T12:35:44.365Z,5.90
2019-05-26T12:38:17.593Z,5.90
2019-05-26T12:40:57.167Z,6.60
2019-05-26T12:43:29.247Z,5.90
2019-05-26T12:46:01.779Z,6.07
2019-05-26T12:48:33.192Z,6.07
2019-05-26T12:51:04.750Z,6.53
2019-05-26T12:53:36.879Z,6.97
2019-05-26T12:56:08.343Z,7.10
2019-05-26T12:58:40.198Z,7.50
2019-05-26T13:01:13.239Z,8.33
2019-05-26T13:03:45.460Z,8.53
2019-05-26T13:06:17.763Z,8.07
2019-05-26T13:08:49.812Z,8.40
2019-05-26T13:11:22.920Z,8.60
2019-05-26T13:13:55.538Z,8.67
2019-05-26T13:16:28.255Z,8.47
2019-05-26T13:18:59.597Z,7.30
2019-05-26T13:21:31.620Z,6.90
2019-05-26T13:24:04.644Z,7.20
2019-05-26T13:26:36.205Z,7.50
2019-05-26T13:29:07.707Z,7.33
2019-05-26T13:31:40.340Z,9.17
2019-05-26T13:34:12.602Z,8.03
2019-05-26T13:36:44.173Z,9.10
2019-05-26T13:39:15.796Z,8.43
2019-05-26T13:41:47.193Z,8.60
2019-05-26T13:44:18.551Z,8.30
2019-05-26T13:46:53.819Z,8.20
2019-05-26T13:49:25.155Z,8.77
2019-05-26T13:51:59.252Z,9.10
2019-05-26T13:54:31.190Z,9.30
2019-05-26T13:57:02.614Z,8.90
2019-05-26T13:59:34.489Z,9.13
2019-05-26T14:02:06.044Z,8.70
2019-05-26T14:04:40.082Z,7.43
2019-05-26T14:07:13.325Z,6.43
2019-05-26T14:09:47.133Z,4.50
2019-05-26T14:12:20.349Z,5.50
2019-05-26T14:14:52.268Z,5.00
2019-05-26T14:17:24.333Z,5.87
2019-05-26T14:19:57.164Z,5.93
2019-05-26T14:22:28.955Z,7.43
2019-05-26T14:25:00.458Z,11.77
2019-05-26T14:27:34.057Z,26.10
2019-05-26T14:30:07.354Z,17.37
2019-05-26T14:32:38.781Z,19.70
2019-05-26T14:35:11.301Z,19.87
2019-05-26T14:37:43.834Z,20.87
2019-05-26T14:40:15.359Z,18.33
2019-05-26T14:42:49.946Z,13.30
2019-05-26T14:45:21.802Z,10.63
2019-05-26T14:47:56.307Z,9.73
2019-05-26T14:50:27.840Z,8.00
2019-05-26T14:52:59.611Z,7.07
2019-05-26T14:55:31.855Z,6.53
2019-05-26T14:58:15.279Z,8.10
2019-05-26T15:00:37.248Z,7.00
2019-05-26T15:03:08.628Z,6.80
2019-05-26T15:05:42.442Z,6.23
2019-05-26T15:08:14.038Z,6.40
2019-05-26T15:10:45.564Z,6.37
2019-05-26T15:13:20.241Z,6.37
2019-05-26T15:15:51.888Z,6.40
2019-05-26T15:18:23.218Z,8.00
2019-05-26T15:20:56.133Z,8.50
2019-05-26T15:23:32.422Z,7.10
2019-05-26T15:26:06.608Z,6.57
2019-05-26T15:28:37.883Z,6.63
2019-05-26T15:31:11.383Z,7.53
2019-05-26T15:33:43.002Z,6.27
2019-05-26T15:36:16.167Z,12.33
2019-05-26T15:38:50.249Z,9.50
2019-05-26T15:41:21.823Z,6.50
2019-05-26T15:43:55.594Z,6.07
2019-05-26T15:46:27.182Z,6.47
2019-05-26T15:48:58.632Z,6.70
2019-05-26T15:51:30.175Z,6.13
2019-05-26T15:54:02.927Z,6.53
2019-05-26T15:56:34.451Z,7.17
2019-05-26T15:59:05.870Z,6.70
2019-05-26T16:01:39.581Z,8.43
2019-05-26T16:04:12.322Z,6.93
2019-05-26T16:06:45.165Z,8.10
2019-05-26T16:09:17.247Z,9.67
2019-05-26T16:11:48.792Z,7.03
2019-05-26T16:14:22.375Z,7.20
2019-05-26T16:16:53.841Z,8.37
2019-05-26T16:19:28.185Z,7.67
2019-05-26T16:22:01.357Z,7.20
2019-05-26T16:31:29.261Z,7.40
2019-05-26T16:34:04.624Z,7.20
2019-05-26T16:36:38.645Z,8.50
2019-05-26T16:39:36.148Z,6.70
2019-05-26T16:42:08.385Z,7.63
2019-05-26T16:44:38.072Z,8.23
2019-05-26T16:47:10.830Z,7.63
2019-05-26T16:49:47.669Z,7.53
2019-05-26T16:52:25.123Z,7.63
2019-05-26T16:54:57.051Z,8.20
2019-05-26T16:57:28.817Z,8.10
2019-05-26T17:00:01.578Z,10.03
2019-05-26T17:02:33.565Z,7.57
2019-05-26T17:05:07.500Z,7.70
2019-05-26T17:07:42.197Z,12.23
2019-05-26T17:10:14.263Z,8.73
2019-05-26T17:12:45.916Z,8.70
2019-05-26T17:15:19.328Z,7.97
2019-05-26T17:17:51.994Z,8.53
2019-05-26T17:20:26.040Z,8.80
2019-05-26T17:23:01.113Z,9.17
2019-05-26T17:25:50.614Z,8.77
2019-05-26T17:28:22.992Z,8.37
2019-05-26T17:30:54.849Z,8.27
2019-05-26T17:33:28.571Z,8.10
2019-05-26T17:36:00.004Z,8.17
2019-05-26T17:38:34.975Z,8.27
2019-05-26T17:41:08.123Z,8.37
2019-05-26T17:43:39.983Z,8.63
2019-05-26T17:46:15.036Z,10.70
2019-05-26T17:48:45.962Z,9.57
2019-05-26T17:51:19.739Z,7.57
2019-05-26T17:53:52.646Z,8.20
2019-05-26T17:56:24.094Z,8.70
2019-05-26T17:58:55.768Z,7.50
2019-05-26T18:01:27.504Z,7.93
2019-05-26T18:04:03.967Z,7.60
2019-05-26T18:06:35.527Z,8.00
2019-05-26T18:09:11.419Z,8.17
2019-05-26T18:11:45.909Z,8.27
2019-05-26T18:14:20.227Z,8.10
2019-05-26T18:16:52.184Z,8.07
2019-05-26T18:19:29.808Z,8.50
2019-05-26T18:22:04.727Z,23.93
2019-05-26T18:24:36.999Z,10.43
2019-05-26T18:27:08.543Z,12.27
2019-05-26T18:29:41.749Z,14.90
2019-05-26T18:32:17.608Z,15.77
2019-05-26T18:34:49.412Z,18.10
2019-05-26T18:37:21.302Z,19.70
2019-05-26T18:39:54.808Z,29.30
2019-05-26T18:42:26.358Z,40.50
2019-05-26T18:44:58.240Z,46.70
2019-05-26T18:47:31.001Z,45.53
2019-05-26T18:50:06.316Z,42.07
2019-05-26T18:52:38.923Z,43.80
2019-05-26T18:55:10.745Z,38.03
2019-05-26T18:57:42.409Z,36.37
2019-05-26T19:00:14.759Z,33.23
2019-05-26T19:02:46.505Z,33.13
2019-05-26T19:05:32.514Z,32.73
2019-05-26T19:07:51.856Z,28.03
2019-05-26T19:10:23.420Z,29.60
2019-05-26T19:12:54.955Z,29.67
2019-05-26T19:15:26.592Z,25.47
2019-05-26T19:17:58.140Z,24.50
2019-05-26T19:20:29.769Z,23.93
2019-05-26T19:23:01.768Z,23.23
2019-05-26T19:25:33.535Z,25.13
2019-05-26T19:28:05.600Z,27.63
2019-05-26T19:30:37.109Z,26.73
2019-05-26T19:33:10.362Z,27.57
2019-05-26T19:35:42.030Z,26.17
2019-05-26T19:38:13.465Z,26.33
2019-05-26T19:40:46.418Z,24.00
2019-05-26T19:43:18.340Z,22.90
2019-05-26T19:45:51.439Z,22.30
2019-05-26T19:48:35.725Z,23.30
2019-05-26T19:50:58.336Z,22.37
2019-05-26T19:53:29.873Z,17.67
2019-05-26T19:56:01.569Z,16.97
2019-05-26T19:58:34.642Z,16.47
2019-05-26T20:01:06.180Z,16.17
2019-05-26T20:03:37.750Z,15.53
2019-05-26T20:06:11.535Z,15.77
2019-05-26T20:08:44.667Z,16.73
2019-05-26T20:11:17.011Z,16.70
2019-05-26T20:13:48.801Z,16.87
2019-05-26T20:16:22.049Z,17.37
2019-05-26T20:18:53.630Z,16.03
2019-05-26T20:21:26.578Z,18.57
2019-05-26T20:23:58.329Z,17.00
2019-05-26T20:26:32.277Z,16.17
2019-05-26T20:29:04.137Z,16.57
2019-05-26T20:31:36.623Z,15.30
2019-05-26T20:34:08.580Z,14.87
2019-05-26T20:36:42.287Z,15.30
2019-05-26T20:39:15.724Z,13.93
2019-05-26T20:41:47.537Z,11.80
2019-05-26T20:44:19.302Z,13.00
2019-05-26T20:46:51.259Z,11.70
2019-05-26T20:49:23.085Z,12.50
2019-05-26T20:51:54.882Z,12.30
2019-05-26T20:54:26.637Z,12.50
2019-05-26T20:56:58.828Z,12.20
2019-05-26T20:59:33.424Z,13.73
2019-05-26T21:02:05.900Z,13.00
2019-05-26T21:04:38.682Z,13.07
2019-05-26T21:07:10.767Z,12.93
2019-05-26T21:09:44.104Z,13.40
2019-05-26T21:12:16.204Z,12.50
2019-05-26T21:14:48.069Z,12.50
2019-05-26T21:17:21.458Z,11.93
2019-05-26T21:19:54.944Z,12.30
2019-05-26T21:22:27.044Z,11.77
2019-05-26T21:24:58.991Z,11.40
2019-05-26T21:27:30.752Z,11.17
2019-05-26T21:30:06.468Z,11.23
2019-05-26T21:32:39.385Z,11.67
2019-05-26T21:35:12.407Z,12.03
2019-05-26T21:37:46.907Z,13.57
2019-05-26T21:40:18.854Z,13.73
2019-05-26T21:42:50.610Z,15.03
2019-05-26T21:45:22.269Z,15.37
2019-05-26T21:47:54.023Z,16.97
2019-05-26T21:50:28.708Z,20.20
2019-05-26T21:53:00.307Z,21.50
2019-05-26T21:55:32.367Z,22.33
2019-05-26T21:58:04.864Z,23.57
2019-05-26T22:00:44.754Z,21.93
2019-05-26T22:03:17.281Z,22.67
2019-05-26T22:05:49.268Z,20.93
2019-05-26T22:08:21.195Z,21.23
2019-05-26T22:10:53.573Z,20.23
2019-05-26T22:13:25.433Z,18.97
2019-05-26T22:15:57.900Z,18.20
2019-05-26T22:18:29.862Z,17.60
2019-05-26T22:21:02.439Z,18.27
2019-05-26T22:23:34.810Z,20.23
2019-05-26T22:26:07.615Z,26.37
2019-05-26T22:28:41.300Z,27.80
2019-05-26T22:31:13.068Z,26.90
2019-05-26T22:33:45.426Z,26.93
2019-05-26T22:36:17.909Z,27.13
2019-05-26T22:38:49.561Z,24.70
2019-05-26T22:41:21.110Z,24.20
2019-05-26T22:43:52.866Z,21.40
2019-05-26T22:46:24.726Z,20.87
2019-05-26T22:48:57.221Z,18.70
2019-05-26T22:51:29.984Z,18.23
2019-05-26T22:54:03.486Z,16.30
2019-05-26T22:56:35.342Z,14.53
2019-05-26T22:59:07.200Z,14.27
2019-05-26T23:01:39.267Z,12.63
2019-05-26T23:04:12.050Z,12.57
2019-05-26T23:06:44.837Z,11.70
2019-05-26T23:09:19.147Z,9.60
2019-05-26T23:11:52.646Z,8.83
2019-05-26T23:14:24.410Z,9.13
2019-05-26T23:16:57.186Z,8.20
2019-05-26T23:19:29.766Z,8.93
2019-05-26T23:22:01.729Z,9.10
2019-05-26T23:24:34.404Z,9.33
2019-05-26T23:27:06.674Z,8.17
2019-05-26T23:29:39.059Z,8.27
2019-05-26T23:32:10.915Z,8.53
2019-05-26T23:34:42.972Z,8.20
2019-05-26T23:37:15.144Z,7.50
2019-05-26T23:39:48.636Z,8.13
2019-05-26T23:42:22.137Z,8.13
2019-05-26T23:44:54.002Z,8.10
2019-05-26T23:47:26.678Z,8.53
2019-05-26T23:49:58.496Z,7.80
2019-05-26T23:52:32.442Z,8.37
2019-05-26T23:55:05.532Z,7.67
2019-05-26T23:57:37.598Z,7.33
